Time;durP1;ratioP1;P1;durP2;ratioP2;P2;SDS_P1;SDS_P2;PMS_P1;PMS_P2;Temp;Humidity;BMP_temperature;BMP_pressure;BME280_temperature;BME280_humidity;BME280_pressure;Samples;Min_cycle;Max_cycle;Signal;HPM_P1;HPM_P2
2021/03/28 00:01:06;;;;;;;11.90;3.60;;;5.80;61.00;;;;;;5118857;28;20497;-36
2021/03/28 00:03:46;;;;;;;10.70;3.10;;;5.90;60.30;;;;;;5118686;28;20015;-36
2021/03/28 00:06:28;;;;;;;5.82;3.05;;;5.90;60.10;;;;;;5120652;27;20019;-36
2021/03/28 00:09:12;;;;;;;19.35;4.03;;;5.80;60.60;;;;;;5120269;27;20035;-36
2021/03/28 00:12:01;;;;;;;15.18;3.13;;;5.90;60.30;;;;;;5120274;28;20110;-36
2021/03/28 00:14:44;;;;;;;7.47;2.80;;;5.90;60.00;;;;;;5117585;28;20030;-36
2021/03/28 00:17:19;;;;;;;12.07;4.97;;;6.00;60.00;;;;;;5116053;28;20432;-37
2021/03/28 00:19:52;;;;;;;13.68;5.05;;;6.00;59.80;;;;;;5117025;28;20055;-37
2021/03/28 00:22:37;;;;;;;12.35;3.83;;;6.00;59.50;;;;;;5116768;28;20034;-38
2021/03/28 00:25:28;;;;;;;10.65;3.33;;;6.20;58.80;;;;;;5116610;27;20433;-37
2021/03/28 00:27:54;;;;;;;5.30;2.72;;;6.30;58.60;;;;;;5116503;28;20023;-37
2021/03/28 00:30:20;;;;;;;8.55;2.67;;;6.20;59.00;;;;;;5116642;28;20036;-37
2021/03/28 00:33:00;;;;;;;9.20;3.28;;;6.10;59.20;;;;;;5116429;28;20467;-37
2021/03/28 00:35:49;;;;;;;7.22;2.80;;;6.20;59.30;;;;;;5116635;27;20031;-37
2021/03/28 00:38:19;;;;;;;6.95;2.72;;;6.20;59.00;;;;;;5116143;28;20034;-37
2021/03/28 00:41:06;;;;;;;8.10;2.13;;;6.20;59.90;;;;;;5116329;28;20118;-36
2021/03/28 00:43:57;;;;;;;14.23;4.80;;;6.30;59.30;;;;;;5116237;28;20019;-36
2021/03/28 00:46:38;;;;;;;9.20;3.70;;;6.30;58.50;;;;;;5116191;28;20023;-35
2021/03/28 00:49:04;;;;;;;12.85;3.88;;;6.40;58.60;;;;;;5116017;28;20761;-36
2021/03/28 00:51:34;;;;;;;18.02;4.75;;;6.40;58.50;;;;;;5116394;28;20106;-36
2021/03/28 00:54:18;;;;;;;14.32;3.40;;;6.30;59.30;;;;;;5117253;28;20016;-36
2021/03/28 00:56:51;;;;;;;9.57;2.90;;;6.30;60.00;;;;;;5117140;28;20049;-37
2021/03/28 00:59:16;;;;;;;16.42;3.50;;;6.30;60.50;;;;;;5116361;28;20482;-36
2021/03/28 01:02:14;;;;;;;10.90;2.92;;;6.30;61.10;;;;;;5116054;28;20020;-36
2021/03/28 01:04:52;;;;;;;12.75;4.03;;;6.40;61.30;;;;;;5115866;28;20055;-36
2021/03/28 01:07:33;;;;;;;10.13;3.72;;;6.50;61.60;;;;;;5114322;28;20019;-36
2021/03/28 01:10:17;;;;;;;18.33;3.70;;;6.60;61.60;;;;;;5115700;28;20023;-36
2021/03/28 01:13:03;;;;;;;9.38;3.63;;;6.60;62.10;;;;;;5115544;28;20390;-35
2021/03/28 01:15:53;;;;;;;13.07;4.22;;;6.60;62.40;;;;;;5115368;28;20031;-36
2021/03/28 01:18:57;;;;;;;16.27;6.13;;;6.50;63.00;;;;;;5115212;28;20082;-36
2021/03/28 01:22:02;;;;;;;22.27;4.93;;;6.60;63.30;;;;;;5093439;28;20027;-36
2021/03/28 01:24:46;;;;;;;19.67;4.32;;;6.80;62.50;;;;;;5112873;28;20058;-36
2021/03/28 01:27:35;;;;;;;14.00;3.13;;;6.70;63.10;;;;;;5115048;28;20015;-36
2021/03/28 01:30:24;;;;;;;12.98;3.40;;;6.60;63.60;;;;;;5115543;28;20028;-36
2021/03/28 01:33:03;;;;;;;10.18;3.33;;;6.60;63.80;;;;;;5115237;28;20023;-36
2021/03/28 01:35:36;;;;;;;20.15;4.10;;;6.70;63.70;;;;;;5115399;28;20027;-36
2021/03/28 01:38:11;;;;;;;11.55;4.40;;;6.70;64.00;;;;;;5115313;28;20027;-36
2021/03/28 01:40:45;;;;;;;14.88;4.07;;;6.70;64.10;;;;;;5115059;28;20023;-36
2021/03/28 01:43:46;;;;;;;10.30;3.58;;;6.70;64.00;;;;;;5114962;28;20028;-36
2021/03/28 01:46:46;;;;;;;12.57;3.60;;;6.80;63.90;;;;;;5115283;28;20027;-36
2021/03/28 01:49:51;;;;;;;9.90;3.33;;;6.70;64.30;;;;;;5114714;28;20040;-36
2021/03/28 01:52:37;;;;;;;11.13;3.13;;;6.70;64.40;;;;;;5114858;28;20099;-39
2021/03/28 01:55:18;;;;;;;14.02;3.33;;;6.80;64.00;;;;;;5114895;28;20034;-35
2021/03/28 01:57:58;;;;;;;19.27;4.53;;;6.70;64.80;;;;;;5115030;28;20023;-36
2021/03/28 02:00:37;;;;;;;18.00;3.47;;;6.80;64.50;;;;;;5114986;28;20467;-36
2021/03/28 02:03:19;;;;;;;12.88;3.17;;;6.80;63.60;;;;;;5114920;28;20108;-36
2021/03/28 02:06:07;;;;;;;12.57;4.18;;;6.80;64.10;;;;;;5114890;28;20065;-35
2021/03/28 02:08:54;;;;;;;13.70;3.00;;;6.70;64.70;;;;;;5114564;27;20031;-35
2021/03/28 02:12:00;;;;;;;8.40;3.40;;;6.80;64.10;;;;;;5114705;28;20475;-36
2021/03/28 02:14:44;;;;;;;11.85;3.63;;;6.70;64.60;;;;;;5114730;28;20475;-37
2021/03/28 02:17:46;;;;;;;13.85;3.58;;;6.80;63.80;;;;;;5114352;28;20120;-37
2021/03/28 02:20:31;;;;;;;18.98;4.28;;;6.80;64.10;;;;;;5114267;28;20028;-38
2021/03/28 02:22:59;;;;;;;10.35;3.53;;;6.80;64.40;;;;;;5114641;28;20149;-35
2021/03/28 02:26:01;;;;;;;15.23;3.40;;;6.80;64.40;;;;;;5114325;28;20371;-35
2021/03/28 02:28:52;;;;;;;11.48;3.55;;;6.80;64.80;;;;;;5114103;28;20148;-35
2021/03/28 02:31:26;;;;;;;12.07;3.55;;;6.80;64.70;;;;;;5116112;28;20043;-36
2021/03/28 02:34:12;;;;;;;11.45;3.53;;;6.80;64.90;;;;;;5114067;28;20023;-36
2021/03/28 02:36:44;;;;;;;20.67;4.20;;;7.00;64.30;;;;;;5114377;28;20102;-35
2021/03/28 02:39:34;;;;;;;8.55;4.43;;;6.90;64.50;;;;;;5114623;28;20023;-36
2021/03/28 02:42:02;;;;;;;19.13;4.93;;;6.90;64.70;;;;;;5113998;28;20019;-36
2021/03/28 02:44:47;;;;;;;22.85;3.00;;;6.80;64.80;;;;;;5114224;28;20475;-36
2021/03/28 02:47:42;;;;;;;14.85;3.70;;;6.80;65.10;;;;;;5112528;28;20442;-35
2021/03/28 02:50:38;;;;;;;18.88;4.45;;;6.80;65.50;;;;;;5114898;28;20042;-35
2021/03/28 02:53:15;;;;;;;16.08;3.65;;;6.80;65.20;;;;;;5114017;28;20534;-35
2021/03/28 02:55:54;;;;;;;8.13;2.90;;;6.80;65.50;;;;;;5113663;28;20409;-35
2021/03/28 02:58:57;;;;;;;15.27;3.80;;;6.80;65.50;;;;;;5113571;28;20045;-35
2021/03/28 03:01:46;;;;;;;13.85;3.75;;;6.90;65.70;;;;;;5113640;28;20425;-36
2021/03/28 03:04:36;;;;;;;12.60;3.35;;;6.80;65.70;;;;;;5113814;28;20027;-36
2021/03/28 03:07:11;;;;;;;9.50;3.60;;;6.80;65.80;;;;;;5114729;28;20034;-36
2021/03/28 03:09:52;;;;;;;10.45;3.05;;;6.80;65.60;;;;;;5113930;28;20032;-36
2021/03/28 03:12:40;;;;;;;11.65;3.53;;;6.90;65.80;;;;;;5113820;28;20052;-36
2021/03/28 03:15:24;;;;;;;10.88;2.80;;;6.80;66.00;;;;;;5114847;28;20043;-36
2021/03/28 03:18:17;;;;;;;14.40;3.42;;;6.80;66.40;;;;;;5113468;28;20042;-36
2021/03/28 03:21:07;;;;;;;13.50;3.88;;;6.80;66.60;;;;;;5112153;28;20387;-36
2021/03/28 03:24:10;;;;;;;7.90;2.75;;;6.60;67.30;;;;;;5113696;28;20456;-36
2021/03/28 03:27:13;;;;;;;12.98;3.03;;;6.70;67.20;;;;;;5113342;28;20421;-36
2021/03/28 03:29:48;;;;;;;14.07;3.38;;;6.70;67.60;;;;;;5113458;28;20042;-36
2021/03/28 03:32:22;;;;;;;16.73;3.20;;;6.60;67.90;;;;;;5113517;28;20524;-37
2021/03/28 03:35:12;;;;;;;13.27;2.88;;;6.60;67.90;;;;;;5113332;28;20039;-36
2021/03/28 03:37:38;;;;;;;14.43;3.50;;;6.70;68.10;;;;;;5113312;28;20039;-36
2021/03/28 03:40:32;;;;;;;7.20;2.30;;;6.70;68.10;;;;;;5113222;28;20379;-36
2021/03/28 03:43:09;;;;;;;8.52;2.70;;;6.70;68.30;;;;;;5113314;28;20030;-36
2021/03/28 03:45:58;;;;;;;13.60;4.15;;;6.70;68.10;;;;;;5113588;28;20023;-36
2021/03/28 03:48:54;;;;;;;11.05;2.90;;;6.70;68.20;;;;;;5113009;28;20138;-36
2021/03/28 03:51:35;;;;;;;19.10;3.30;;;6.80;68.20;;;;;;5116968;28;20068;-36
2021/03/28 03:54:16;;;;;;;19.75;3.72;;;6.80;68.40;;;;;;5115857;28;20055;-36
2021/03/28 03:56:54;;;;;;;;;;;6.80;68.20;;;;;;5118150;28;20028;-36
2021/03/28 03:59:30;;;;;;;11.10;3.00;;;6.80;68.40;;;;;;5117046;28;19907;-36
2021/03/28 04:02:18;;;;;;;10.90;2.70;;;6.80;68.40;;;;;;5117410;28;20472;-36
2021/03/28 04:04:52;;;;;;;13.73;3.80;;;6.80;68.60;;;;;;5117218;28;20027;-36
2021/03/28 04:07:46;;;;;;;8.18;4.00;;;6.80;68.90;;;;;;5117686;28;20035;-36
2021/03/28 04:10:17;;;;;;;14.40;3.13;;;6.80;68.90;;;;;;5117013;28;20103;-36
2021/03/28 04:13:31;;;;;;;14.25;3.17;;;6.80;68.90;;;;;;5117135;28;20023;-36
2021/03/28 04:16:40;;;;;;;8.38;2.75;;;6.80;69.40;;;;;;5079773;28;20583;-36
2021/03/28 04:19:51;;;;;;;12.27;3.50;;;6.80;69.40;;;;;;5116697;28;20357;-36
2021/03/28 04:22:51;;;;;;;10.95;2.80;;;6.80;69.40;;;;;;5107198;28;20027;-37
2021/03/28 04:25:29;;;;;;;17.08;2.97;;;6.80;69.60;;;;;;5116542;28;20534;-36
2021/03/28 04:28:26;;;;;;;8.45;3.25;;;6.80;69.40;;;;;;5116518;28;20031;-36
2021/03/28 04:30:58;;;;;;;14.00;5.57;;;6.80;69.40;;;;;;5116765;28;20047;-36
2021/03/28 04:33:41;;;;;;;6.60;2.22;;;6.80;69.70;;;;;;5116749;28;20015;-36
2021/03/28 04:36:19;;;;;;;16.20;4.05;;;6.80;69.50;;;;;;5116673;28;20092;-36
2021/03/28 04:38:53;;;;;;;13.55;4.00;;;6.80;69.40;;;;;;5116391;28;20020;-37
2021/03/28 04:41:51;;;;;;;13.65;3.03;;;6.90;69.10;;;;;;5116564;28;20024;-37
2021/03/28 04:44:38;;;;;;;11.20;2.97;;;6.90;69.00;;;;;;5114375;28;20032;-37
2021/03/28 04:47:19;;;;;;;8.57;3.00;;;6.80;69.40;;;;;;5116325;28;20024;-37
2021/03/28 04:50:14;;;;;;;9.30;2.42;;;6.90;69.30;;;;;;5116778;28;20063;-37
2021/03/28 04:52:43;;;;;;;8.63;2.40;;;6.90;69.00;;;;;;5116408;28;20044;-35
2021/03/28 04:55:21;;;;;;;9.32;2.33;;;6.90;69.20;;;;;;5116398;28;20019;-35
2021/03/28 04:58:00;;;;;;;10.35;2.65;;;6.80;69.70;;;;;;5116075;28;20391;-35
2021/03/28 05:01:09;;;;;;;18.60;4.05;;;6.80;69.30;;;;;;5115479;28;20115;-36
2021/03/28 05:04:07;;;;;;;9.00;3.28;;;6.90;69.00;;;;;;5108073;28;20410;-36
2021/03/28 05:06:54;;;;;;;6.40;2.22;;;6.80;69.20;;;;;;5116373;28;20042;-36
2021/03/28 05:09:48;;;;;;;7.97;3.08;;;6.80;69.50;;;;;;5116107;28;20060;-36
2021/03/28 05:12:43;;;;;;;16.73;2.17;;;6.70;69.70;;;;;;5097758;28;20031;-35
2021/03/28 05:15:15;;;;;;;13.82;2.90;;;6.80;69.60;;;;;;5114474;28;20035;-36
2021/03/28 05:18:02;;;;;;;9.30;1.85;;;6.80;69.60;;;;;;5114411;28;20032;-36
2021/03/28 05:20:46;;;;;;;12.95;2.80;;;6.80;69.60;;;;;;5115807;28;20028;-36
2021/03/28 05:23:32;;;;;;;9.40;2.38;;;6.80;69.30;;;;;;5114205;28;20073;-35
2021/03/28 05:26:19;;;;;;;7.70;2.25;;;6.80;69.00;;;;;;5115415;28;20026;-35
2021/03/28 05:29:14;;;;;;;8.55;2.17;;;6.90;69.10;;;;;;5114261;28;20020;-35
2021/03/28 05:31:52;;;;;;;15.80;3.45;;;7.00;68.90;;;;;;5114816;28;20044;-35
2021/03/28 05:34:55;;;;;;;5.78;1.83;;;7.10;68.70;;;;;;5115661;28;20156;-35
2021/03/28 05:37:42;;;;;;;13.15;4.75;;;7.00;68.80;;;;;;5115153;28;20034;-35
2021/03/28 05:40:20;;;;;;;10.73;2.67;;;7.10;68.50;;;;;;5115248;28;20122;-37
2021/03/28 05:42:52;;;;;;;9.60;2.70;;;7.20;68.30;;;;;;5114014;28;20024;-36
2021/03/28 05:45:29;;;;;;;9.93;3.40;;;7.20;68.10;;;;;;5115114;28;20409;-36
2021/03/28 05:48:16;;;;;;;8.90;2.47;;;7.10;68.70;;;;;;5113726;28;20491;-35
2021/03/28 05:50:56;;;;;;;9.32;2.63;;;7.30;68.30;;;;;;5115089;28;20020;-35
2021/03/28 05:53:25;;;;;;;10.63;3.65;;;7.30;68.10;;;;;;5114921;28;20336;-35
2021/03/28 05:56:41;;;;;;;6.88;2.45;;;7.30;68.30;;;;;;5115161;28;20382;-35
2021/03/28 05:59:37;;;;;;;9.05;1.98;;;7.30;68.40;;;;;;5113484;28;20023;-36
2021/03/28 06:02:18;;;;;;;9.45;2.42;;;7.30;68.80;;;;;;5115136;28;20414;-35
2021/03/28 06:05:02;;;;;;;11.90;3.20;;;7.30;68.40;;;;;;5114774;28;20023;-35
2021/03/28 06:07:58;;;;;;;9.38;2.47;;;7.30;68.20;;;;;;5114887;28;20035;-36
2021/03/28 06:10:45;;;;;;;9.23;2.47;;;7.50;67.90;;;;;;5114542;28;20072;-36
2021/03/28 06:13:47;;;;;;;7.03;2.35;;;7.50;67.30;;;;;;5113794;28;20016;-36
2021/03/28 06:16:40;;;;;;;14.32;2.10;;;7.60;67.40;;;;;;5114435;28;20024;-36
2021/03/28 06:19:12;;;;;;;6.72;2.33;;;7.70;67.30;;;;;;5114385;28;20027;-36
2021/03/28 06:21:46;;;;;;;14.27;2.67;;;7.70;66.90;;;;;;5113858;28;20049;-36
2021/03/28 06:24:21;;;;;;;11.98;4.03;;;7.80;66.50;;;;;;5114382;28;20027;-37
2021/03/28 06:27:00;;;;;;;10.35;2.67;;;8.00;65.60;;;;;;5114230;28;20498;-35
2021/03/28 06:29:29;;;;;;;11.75;2.65;;;7.90;66.20;;;;;;5113509;28;20115;-37
2021/03/28 06:32:17;;;;;;;8.48;1.88;;;7.90;65.90;;;;;;5114338;28;20463;-36
2021/03/28 06:35:08;;;;;;;6.30;1.95;;;7.90;66.20;;;;;;5114545;28;20127;-36
2021/03/28 06:37:48;;;;;;;7.38;1.73;;;8.00;65.50;;;;;;5114067;28;20536;-36
2021/03/28 06:40:43;;;;;;;13.70;2.92;;;8.10;65.60;;;;;;5114002;28;20497;-36
2021/03/28 06:44:03;;;;;;;12.15;3.38;;;7.90;66.00;;;;;;5114146;28;20039;-36
2021/03/28 06:46:53;;;;;;;10.35;3.20;;;8.10;66.10;;;;;;5054652;28;20036;-35
2021/03/28 06:49:37;;;;;;;5.93;1.77;;;7.90;66.20;;;;;;5109870;28;20047;-36
2021/03/28 06:52:14;;;;;;;10.35;2.03;;;8.20;65.50;;;;;;5114227;28;20024;-36
2021/03/28 06:55:35;;;;;;;9.55;1.92;;;8.30;64.90;;;;;;5114107;28;20084;-36
2021/03/28 06:58:09;;;;;;;7.35;2.25;;;8.20;65.20;;;;;;5070994;28;20171;-36
2021/03/28 07:00:40;;;;;;;9.13;2.30;;;8.30;64.80;;;;;;5071300;28;20102;-35
2021/03/28 07:03:25;;;;;;;8.90;2.30;;;8.30;64.60;;;;;;5095130;28;20231;-36
2021/03/28 07:06:37;;;;;;;11.95;3.78;;;8.30;64.80;;;;;;5114220;28;20042;-36
2021/03/28 07:09:27;;;;;;;10.65;1.98;;;8.50;64.50;;;;;;5111522;28;20035;-36
2021/03/28 07:12:15;;;;;;;10.98;2.03;;;8.60;64.50;;;;;;5112754;28;20502;-37
2021/03/28 07:14:52;;;;;;;4.63;2.08;;;8.60;64.70;;;;;;5112453;28;20380;-36
2021/03/28 07:18:04;;;;;;;8.07;2.90;;;8.60;64.20;;;;;;5113811;28;20042;-36
2021/03/28 07:21:01;;;;;;;7.38;2.53;;;8.70;64.40;;;;;;5070919;28;20515;-35
2021/03/28 07:23:51;;;;;;;17.63;4.63;;;8.80;64.00;;;;;;5071795;28;20028;-36
2021/03/28 07:26:41;;;;;;;7.15;2.35;;;8.80;64.00;;;;;;5113423;28;20031;-36
2021/03/28 07:29:32;;;;;;;12.55;2.80;;;8.80;63.90;;;;;;5118139;28;20463;-36
2021/03/28 07:32:32;;;;;;;13.77;2.67;;;8.90;63.60;;;;;;5093090;28;20095;-36
2021/03/28 07:35:35;;;;;;;8.48;2.45;;;9.00;63.80;;;;;;5117675;28;20058;-37
2021/03/28 07:38:39;;;;;;;5.10;2.15;;;8.90;63.70;;;;;;5117764;28;20072;-36
2021/03/28 07:41:24;;;;;;;6.18;2.83;;;9.20;63.20;;;;;;5094075;28;20036;-36
2021/03/28 07:44:11;;;;;;;10.52;1.85;;;9.20;63.40;;;;;;5117522;27;20024;-36
2021/03/28 07:47:13;;;;;;;7.40;2.17;;;9.20;63.30;;;;;;5117429;28;20047;-36
2021/03/28 07:50:02;;;;;;;6.47;1.73;;;9.20;63.30;;;;;;5117625;28;20479;-37
2021/03/28 07:52:56;;;;;;;10.30;2.35;;;9.30;63.00;;;;;;5087635;28;20382;-35
2021/03/28 07:55:22;;;;;;;6.25;3.47;;;9.30;63.20;;;;;;5117379;28;20024;-36
2021/03/28 07:58:09;;;;;;;15.77;2.90;;;9.50;63.00;;;;;;5117151;28;20131;-37
2021/03/28 08:01:08;;;;;;;11.88;2.03;;;9.60;62.50;;;;;;5117161;28;20077;-38
2021/03/28 08:03:59;;;;;;;9.38;2.22;;;9.70;62.00;;;;;;5117737;28;20471;-37
2021/03/28 08:06:43;;;;;;;11.38;2.17;;;9.80;61.90;;;;;;5117119;28;20031;-38
2021/03/28 08:09:33;;;;;;;6.88;1.75;;;9.80;62.10;;;;;;5117124;28;20069;-38
2021/03/28 08:12:17;;;;;;;7.88;2.47;;;9.90;61.40;;;;;;5117296;28;20034;-37
2021/03/28 08:15:20;;;;;;;10.25;3.65;;;9.80;61.60;;;;;;5116859;27;20040;-38
2021/03/28 08:17:49;;;;;;;9.85;2.63;;;10.10;60.50;;;;;;5115498;28;20028;-37
2021/03/28 08:20:56;;;;;;;6.00;1.52;;;10.20;60.30;;;;;;5116744;28;20030;-36
2021/03/28 08:23:43;;;;;;;12.55;2.92;;;10.50;59.70;;;;;;5117064;28;20414;-36
2021/03/28 08:26:19;;;;;;;12.90;2.95;;;10.50;59.70;;;;;;5116681;28;20020;-37
2021/03/28 08:28:45;;;;;;;5.30;2.67;;;10.50;59.90;;;;;;5115436;28;20080;-36
2021/03/28 08:31:21;;;;;;;8.75;3.65;;;10.60;59.70;;;;;;5116706;28;20417;-36
2021/03/28 08:34:24;;;;;;;11.70;2.65;;;10.50;59.50;;;;;;5117186;28;20039;-36
2021/03/28 08:37:02;;;;;;;8.05;2.33;;;10.60;59.60;;;;;;5115515;28;20518;-36
2021/03/28 08:40:12;;;;;;;6.45;2.20;;;10.60;59.80;;;;;;5116279;27;20483;-37
2021/03/28 08:42:56;;;;;;;9.20;2.42;;;10.70;59.90;;;;;;5073648;28;20032;-37
2021/03/28 08:45:28;;;;;;;8.45;2.10;;;10.50;60.80;;;;;;5073853;28;20029;-36
2021/03/28 08:48:15;;;;;;;6.05;2.05;;;10.60;60.50;;;;;;5092280;28;20047;-36
2021/03/28 08:50:47;;;;;;;6.78;2.75;;;10.60;60.60;;;;;;5116349;28;20094;-36
2021/03/28 08:53:35;;;;;;;8.73;2.42;;;10.80;60.00;;;;;;5116326;28;20027;-36
2021/03/28 08:56:15;;;;;;;7.28;2.10;;;10.80;60.10;;;;;;5116311;28;20403;-37
2021/03/28 08:59:05;;;;;;;10.85;2.58;;;10.60;60.70;;;;;;5116184;28;20046;-38
2021/03/28 09:02:06;;;;;;;8.53;2.53;;;10.80;60.70;;;;;;5116299;28;20081;-38
2021/03/28 09:04:51;;;;;;;8.80;2.88;;;11.20;59.60;;;;;;5108324;28;20120;-36
2021/03/28 09:07:41;;;;;;;5.65;1.95;;;11.00;60.30;;;;;;5116343;28;20551;-36
2021/03/28 09:11:04;;;;;;;11.63;2.92;;;11.20;59.70;;;;;;5116093;28;20019;-35
2021/03/28 09:13:52;;;;;;;8.63;2.45;;;11.40;59.10;;;;;;5062886;28;20048;-36
2021/03/28 09:16:36;;;;;;;13.65;2.70;;;11.50;58.80;;;;;;5115957;28;20047;-37
2021/03/28 09:19:13;;;;;;;10.50;2.20;;;11.50;58.60;;;;;;5115450;28;20388;-37
2021/03/28 09:22:23;;;;;;;8.90;3.92;;;11.70;58.60;;;;;;5115778;28;20031;-36
2021/03/28 09:24:56;;;;;;;11.88;2.30;;;11.90;56.80;;;;;;5106486;28;20031;-36
2021/03/28 09:27:46;;;;;;;9.02;1.83;;;12.40;54.90;;;;;;5115328;28;20012;-36
2021/03/28 09:30:27;;;;;;;4.88;2.35;;;12.20;55.90;;;;;;5113965;28;20060;-36
2021/03/28 09:32:53;;;;;;;12.65;3.08;;;12.30;56.20;;;;;;5115508;28;20027;-36
2021/03/28 09:35:36;;;;;;;9.95;3.42;;;12.80;54.50;;;;;;5115638;28;20027;-36
2021/03/28 09:38:27;;;;;;;10.65;2.78;;;13.50;52.30;;;;;;5115089;28;20030;-38
2021/03/28 09:41:25;;;;;;;7.90;3.40;;;13.50;52.20;;;;;;5115324;28;20103;-38
2021/03/28 09:43:57;;;;;;;12.35;3.15;;;13.10;53.00;;;;;;5114098;28;20024;-37
2021/03/28 09:46:41;;;;;;;6.85;2.17;;;13.00;53.30;;;;;;5115487;28;20418;-37
2021/03/28 09:49:28;;;;;;;9.23;1.83;;;12.80;54.00;;;;;;5114841;28;20047;-37
2021/03/28 09:52:06;;;;;;;6.18;2.53;;;12.80;54.10;;;;;;5115154;28;20062;-37
2021/03/28 09:54:50;;;;;;;7.20;3.72;;;13.30;52.80;;;;;;5114937;28;20027;-37
2021/03/28 09:57:34;;;;;;;7.97;2.50;;;13.40;51.90;;;;;;5115121;28;20036;-37
2021/03/28 10:00:24;;;;;;;5.63;2.08;;;13.90;50.50;;;;;;5114890;28;20063;-36
2021/03/28 10:03:14;;;;;;;4.55;1.85;;;13.10;51.00;;;;;;5114579;27;20031;-37
2021/03/28 10:05:40;;;;;;;9.40;2.55;;;13.50;50.70;;;;;;5114647;28;20020;-38
2021/03/28 10:08:12;;;;;;;11.52;2.25;;;12.80;50.70;;;;;;5114485;28;20514;-37
2021/03/28 10:11:21;;;;;;;8.68;2.10;;;12.80;49.20;;;;;;5114301;28;20023;-38
2021/03/28 10:14:02;;;;;;;8.43;2.22;;;13.70;45.70;;;;;;5114145;28;20032;-36
2021/03/28 10:16:46;;;;;;;;;;;14.30;44.20;;;;;;5113845;28;20028;-37
2021/03/28 10:19:48;;;;;;;5.18;2.17;;;13.80;44.60;;;;;;5112820;28;19912;-37
2021/03/28 10:22:54;;;;;;;17.92;3.67;;;14.00;44.20;;;;;;5112113;28;20042;-37
2021/03/28 10:25:38;;;;;;;6.50;2.25;;;13.00;45.70;;;;;;5114162;28;20476;-37
2021/03/28 10:28:37;;;;;;;8.02;3.15;;;13.50;44.60;;;;;;5114220;28;20099;-37
2021/03/28 10:31:23;;;;;;;8.32;2.63;;;13.30;44.20;;;;;;5114768;28;20050;-38
2021/03/28 10:34:13;;;;;;;11.32;3.35;;;13.40;43.60;;;;;;5116174;28;20052;-38
2021/03/28 10:36:57;;;;;;;9.85;2.60;;;13.50;43.30;;;;;;5116160;28;20020;-38
2021/03/28 10:39:51;;;;;;;7.13;1.98;;;13.80;42.70;;;;;;5114198;28;20467;-38
2021/03/28 10:42:31;;;;;;;9.05;2.05;;;14.40;42.10;;;;;;5114201;28;20043;-38
2021/03/28 10:45:25;;;;;;;8.05;2.05;;;14.60;42.70;;;;;;5113965;28;20508;-37
2021/03/28 10:48:28;;;;;;;6.50;1.85;;;15.20;41.40;;;;;;5113739;28;20487;-37
2021/03/28 10:51:15;;;;;;;4.40;1.73;;;15.20;39.20;;;;;;5113852;28;20488;-37
2021/03/28 10:53:55;;;;;;;3.38;1.60;;;14.50;39.70;;;;;;5113873;28;20038;-38
2021/03/28 10:56:27;;;;;;;8.27;2.35;;;14.20;39.90;;;;;;5113858;28;20023;-38
2021/03/28 10:58:58;;;;;;;5.28;1.95;;;14.00;41.00;;;;;;5113941;28;20036;-38
2021/03/28 11:01:36;;;;;;;7.57;2.35;;;14.40;40.40;;;;;;5114007;28;20024;-37
2021/03/28 11:04:20;;;;;;;8.88;2.70;;;14.70;40.30;;;;;;5113666;28;20519;-37
2021/03/28 11:07:22;;;;;;;8.73;4.07;;;14.20;41.00;;;;;;5114601;28;20102;-37
2021/03/28 11:10:25;;;;;;;4.35;1.20;;;14.60;39.60;;;;;;5114194;28;20031;-38
2021/03/28 11:13:22;;;;;;;5.40;1.30;;;14.80;39.30;;;;;;5113657;28;20015;-39
2021/03/28 11:16:10;;;;;;;6.85;2.15;;;14.30;39.70;;;;;;5110230;28;20036;-39
2021/03/28 11:18:38;;;;;;;7.18;1.60;;;14.90;39.00;;;;;;5113814;28;20038;-38
2021/03/28 11:21:38;;;;;;;7.93;1.60;;;14.60;39.60;;;;;;5113414;28;20023;-38
2021/03/28 11:24:35;;;;;;;4.03;1.23;;;14.30;39.60;;;;;;5114461;28;20076;-37
2021/03/28 11:27:34;;;;;;;5.47;2.08;;;14.40;39.90;;;;;;5112012;28;20027;-38
2021/03/28 11:30:29;;;;;;;9.10;2.08;;;14.60;40.40;;;;;;5113397;28;20024;-37
2021/03/28 11:33:26;;;;;;;5.18;2.00;;;14.60;39.90;;;;;;5113658;28;20016;-37
2021/03/28 11:35:54;;;;;;;8.80;1.95;;;14.50;39.80;;;;;;5114011;28;20043;-39
2021/03/28 11:38:19;;;;;;;5.43;1.50;;;14.30;41.00;;;;;;5113129;28;20028;-38
2021/03/28 11:40:48;;;;;;;10.45;1.90;;;14.60;40.40;;;;;;5113316;28;20379;-37
2021/03/28 11:43:48;;;;;;;8.43;2.13;;;14.80;39.60;;;;;;5113549;28;20032;-38
2021/03/28 11:46:47;;;;;;;6.70;1.83;;;14.70;40.10;;;;;;5113350;28;20019;-38
2021/03/28 11:49:16;;;;;;;7.28;1.92;;;13.90;41.50;;;;;;5111754;28;20057;-38
2021/03/28 11:51:51;;;;;;;10.10;2.05;;;13.80;42.20;;;;;;5111953;28;20023;-39
2021/03/28 11:54:21;;;;;;;12.57;2.97;;;14.00;41.60;;;;;;5113476;28;20055;-38
2021/03/28 11:56:50;;;;;;;7.80;2.17;;;14.00;42.00;;;;;;5113732;28;20027;-39
2021/03/28 11:59:25;;;;;;;5.32;2.00;;;14.00;42.30;;;;;;5113523;28;20068;-38
2021/03/28 12:01:58;;;;;;;5.13;2.17;;;14.00;42.40;;;;;;5113082;28;20050;-37
2021/03/28 12:04:43;;;;;;;10.00;2.22;;;14.10;42.20;;;;;;5113433;28;20072;-41
2021/03/28 12:07:27;;;;;;;7.13;1.88;;;14.00;42.30;;;;;;5113566;28;20012;-38
2021/03/28 12:10:02;;;;;;;10.77;2.78;;;14.20;41.70;;;;;;5113383;28;20026;-37
2021/03/28 12:12:40;;;;;;;10.82;2.10;;;14.30;42.30;;;;;;5116756;28;20061;-37
2021/03/28 12:15:46;;;;;;;8.25;2.45;;;14.70;41.40;;;;;;5116922;28;20028;-36
2021/03/28 12:18:20;;;;;;;3.97;1.70;;;14.30;41.90;;;;;;5116477;28;20061;-38
2021/03/28 12:20:47;;;;;;;4.80;1.55;;;14.60;41.20;;;;;;5116618;28;20095;-38
2021/03/28 12:23:29;;;;;;;5.65;1.75;;;14.30;40.70;;;;;;5116859;28;20027;-38
2021/03/28 12:26:14;;;;;;;4.22;1.70;;;14.10;40.90;;;;;;5116693;28;20024;-38
2021/03/28 12:28:47;;;;;;;8.95;3.45;;;14.10;40.30;;;;;;5115981;28;20028;-37
2021/03/28 12:31:46;;;;;;;8.05;1.98;;;14.30;40.80;;;;;;5116442;28;20483;-38
2021/03/28 12:34:30;;;;;;;10.18;1.85;;;14.60;40.00;;;;;;5116652;28;20092;-38
2021/03/28 12:37:14;;;;;;;7.68;2.42;;;14.10;40.60;;;;;;5116754;28;20019;-39
2021/03/28 12:39:43;;;;;;;7.72;2.20;;;14.20;40.90;;;;;;5116444;28;20057;-37
2021/03/28 12:42:27;;;;;;;4.35;1.58;;;14.00;41.00;;;;;;5114724;28;20148;-37
2021/03/28 12:44:56;;;;;;;9.13;2.17;;;14.00;40.40;;;;;;5116054;28;20023;-38
2021/03/28 12:47:29;;;;;;;6.88;1.77;;;14.30;40.30;;;;;;5115997;28;20100;-37
2021/03/28 12:50:29;;;;;;;7.45;2.05;;;14.40;39.80;;;;;;5116100;27;20058;-37
2021/03/28 12:53:05;;;;;;;4.43;1.92;;;14.10;40.00;;;;;;5114781;28;20032;-37
2021/03/28 12:55:58;;;;;;;6.90;1.60;;;14.10;40.50;;;;;;5116156;28;20031;-39
2021/03/28 12:58:26;;;;;;;4.45;1.55;;;13.90;39.90;;;;;;5114011;28;20028;-38
2021/03/28 13:01:01;;;;;;;6.72;2.10;;;14.00;40.10;;;;;;5115588;28;20023;-37
2021/03/28 13:03:26;;;;;;;3.60;1.38;;;14.20;39.90;;;;;;5116231;28;20049;-40
2021/03/28 13:06:00;;;;;;;6.70;1.52;;;13.80;41.10;;;;;;5115645;28;20437;-38
2021/03/28 13:08:27;;;;;;;13.02;2.92;;;14.10;40.90;;;;;;5116678;27;20072;-37
2021/03/28 13:11:02;;;;;;;4.75;2.00;;;14.10;40.70;;;;;;5115825;28;20390;-37
2021/03/28 13:13:29;;;;;;;12.65;1.95;;;14.10;40.60;;;;;;5115111;27;20028;-37
2021/03/28 13:16:00;;;;;;;4.53;1.35;;;14.20;40.20;;;;;;5114114;28;20076;-37
2021/03/28 13:18:30;;;;;;;7.13;1.80;;;14.10;40.60;;;;;;5114050;28;20506;-37
2021/03/28 13:21:24;;;;;;;5.63;2.38;;;14.20;40.80;;;;;;5115377;28;20020;-36
2021/03/28 13:23:49;;;;;;;7.10;2.05;;;14.40;40.80;;;;;;5115744;28;20056;-38
2021/03/28 13:26:28;;;;;;;6.38;1.40;;;14.00;40.90;;;;;;5115327;28;20464;-37
2021/03/28 13:29:12;;;;;;;12.10;2.53;;;14.10;41.30;;;;;;5115318;27;20024;-37
2021/03/28 13:31:54;;;;;;;5.97;1.92;;;14.00;40.80;;;;;;5113955;28;20038;-37
2021/03/28 13:34:51;;;;;;;4.00;1.70;;;14.30;40.50;;;;;;5115196;28;20031;-38
2021/03/28 13:37:23;;;;;;;9.15;2.17;;;14.20;40.50;;;;;;5115409;28;20155;-37
2021/03/28 13:39:55;;;;;;;7.53;1.98;;;14.20;40.20;;;;;;5115145;28;20077;-37
2021/03/28 13:42:25;;;;;;;5.70;1.58;;;13.90;41.20;;;;;;5114921;28;20567;-37
2021/03/28 13:44:55;;;;;;;10.35;2.38;;;13.90;41.20;;;;;;5115141;28;20047;-37
2021/03/28 13:47:42;;;;;;;8.25;1.80;;;14.00;41.40;;;;;;5114715;28;20088;-37
2021/03/28 13:50:32;;;;;;;7.60;1.77;;;13.80;41.10;;;;;;5114737;27;20039;-37
2021/03/28 13:53:00;;;;;;;18.63;3.45;;;13.90;41.10;;;;;;5114855;28;20032;-36
2021/03/28 13:55:46;;;;;;;7.50;2.05;;;14.10;40.90;;;;;;5114614;28;20422;-36
2021/03/28 13:58:17;;;;;;;5.60;1.85;;;14.20;40.30;;;;;;5113229;28;20046;-37
2021/03/28 14:00:46;;;;;;;8.57;1.88;;;14.10;41.00;;;;;;5114949;28;20024;-36
2021/03/28 14:03:37;;;;;;;7.43;2.25;;;13.80;40.80;;;;;;5114308;28;20028;-36
2021/03/28 14:06:27;;;;;;;7.80;1.90;;;13.80;41.10;;;;;;5113860;28;20102;-37
2021/03/28 14:08:56;;;;;;;;;;;13.90;40.70;;;;;;5107799;28;20507;-37
2021/03/28 14:11:40;;;;;;;15.82;4.40;;;13.90;40.90;;;;;;5114401;28;19981;-36
2021/03/28 14:14:23;;;;;;;6.68;1.45;;;13.90;40.80;;;;;;5114315;28;20023;-37
2021/03/28 14:16:52;;;;;;;5.47;1.60;;;13.80;40.70;;;;;;5114266;27;20024;-37
2021/03/28 14:19:25;;;;;;;4.50;2.00;;;13.90;40.80;;;;;;5114270;28;20051;-37